Aviation Digital Data Service (ADDS)

Output produced by METARs form (1316 UTC 23 November 2014)
found at http://aviationweather.gov/adds/metars/
 
KIAD 231133Z 2312/2418 19007KT P6SM BKN080 
     FM240000 14007KT P6SM OVC025 
     FM240200 13008KT 3SM -RA OVC008 
     FM240500 15013KT 2SM RA OVC008 
     FM240600 15014KT 1SM RA OVC008 WS020/16045KT 
     FM240900 18012KT 2SM -RA OVC008 
     FM241200 18011KT P6SM OVC008